Data for 09/21/2017

Time Sea-Level Adjusted Pressure Absolute Pressure Temperature Relative Humidity Dew Point   
(mb) (inHg) (mb) (inHg) (C) (F) (%) (C) (F)
00:05 1010 29.83 839 24.78 5.4 41.7 81 2.3 36.2
00:10 1010 29.83 839 24.78 5.4 41.7 80 2.2 35.9
00:15 1010 29.83 839 24.78 5.4 41.7 80 2.2 35.9
00:20 1010 29.83 839 24.78 5.4 41.8 81 2.3 36.2
00:25 1010 29.83 839 24.78 5.5 41.8 81 2.4 36.4
00:30 1010 29.83 839 24.78 5.4 41.8 81 2.4 36.4
00:35 1010 29.83 839 24.78 5.4 41.7 81 2.4 36.4
00:40 1010 29.83 839 24.78 5.4 41.7 83 2.7 36.8
00:45 1010 29.83 839 24.78 5.3 41.6 83 2.7 36.9
00:50 1010 29.83 839 24.78 5.3 41.5 83 2.7 36.8
00:55 1010 29.83 839 24.78 5.2 41.4 84 2.7 36.8
01:00 1010 29.83 839 24.78 5.3 41.5 84 2.8 37.1
01:05 1010 29.83 840 24.81 5.2 41.4 85 3 37.3
01:10 1010 29.83 840 24.81 5.2 41.3 85 2.9 37.2
01:15 1010 29.83 840 24.81 5.2 41.3 85 2.9 37.2
01:20 1010 29.83 840 24.81 5.2 41.4 85 2.9 37.3
01:25 1010 29.83 840 24.81 5.2 41.3 84 2.8 37
01:30 1010 29.83 840 24.81 5.2 41.4 84 2.7 36.9
01:35 1010 29.83 840 24.81 5.2 41.4 82 2.3 36.2
01:40 1010 29.83 840 24.81 5.3 41.5 81 2.3 36.1
01:45 1011 29.85 840 24.81 5.4 41.7 80 2.2 36
01:50 1010 29.83 840 24.81 5.4 41.7 82 2.6 36.7
01:55 1010 29.83 839 24.78 5.3 41.6 84 2.8 37.1
02:00 1011 29.85 840 24.81 5.2 41.3 85 2.9 37.3
02:05 1011 29.85 840 24.81 4.9 40.9 87 2.9 37.2
02:10 1010 29.83 840 24.81 4.9 40.7 86 2.8 37
02:15 1011 29.85 840 24.81 4.9 40.9 86 2.7 36.9
02:20 1011 29.85 840 24.81 5 40.9 85 2.7 36.9
02:25 1010 29.83 840 24.81 4.9 40.8 85 2.5 36.6
02:30 1010 29.83 840 24.81 4.9 40.8 85 2.5 36.6
02:35 1010 29.83 840 24.81 4.8 40.7 85 2.5 36.6
02:40 1011 29.85 840 24.81 4.8 40.7 85 2.5 36.4
02:45 1010 29.83 840 24.81 5 40.9 83 2.4 36.3
02:50 1010 29.83 840 24.81 5 41 83 2.4 36.3
02:55 1010 29.83 840 24.81 5 41 83 2.4 36.3
03:00 1010 29.83 840 24.81 5 41 83 2.4 36.4
03:05 1010 29.83 840 24.81 4.9 40.9 84 2.4 36.3
03:10 1010 29.83 840 24.81 4.9 40.9 82 2.2 35.9
03:15 1010 29.83 840 24.81 5 41 81 2.1 35.8
03:20 1010 29.83 839 24.78 5 41 81 2 35.5
03:25 1010 29.83 839 24.78 5 40.9 82 2.1 35.8
03:30 1010 29.83 839 24.78 4.8 40.7 83 2.2 35.9
03:35 1010 29.83 839 24.78 4.8 40.6 83 2 35.7
03:40 1010 29.83 839 24.78 4.8 40.6 82 2 35.6
03:45 1010 29.83 839 24.78 4.9 40.9 81 2 35.6
03:50 1010 29.83 840 24.81 5 41 81 2 35.6
03:55 1010 29.83 840 24.81 5.1 41.2 81 2.1 35.7
04:00 1010 29.83 840 24.81 5.1 41.2 80 1.9 35.5
04:05 1010 29.83 840 24.81 5.2 41.4 79 1.8 35.2
04:10 1010 29.83 840 24.81 5.3 41.5 78 1.8 35.2
04:15 1010 29.83 840 24.81 5.1 41.2 79 1.8 35.3